首页
METAR-TAF:

METAR-TAF

机场 :

Fairfield Municipal Airport

費爾菲爾德, 艾奥瓦州, 美国

纬度: 41-03N, 经度: 091-59W, 海拔: 244米

当前天气观测

该预报发布于23分钟前的20:15 UTC
风速13节,风向东北
温度 6°C
湿度 65%
气压 1008 hPa
能見度: 16.1公里
多云层高于4100英尺

METAR: KFFL 242015Z AUTO 04013KT 10SM BKN041 06/00 A2977 RMK A01

时间: 14:38 (20:38 UTC)


TAF: 丢失

超过4000个机场的气象观测和天气预报(METAR&TAF报告)。

可查询的气象台以黄色和红色小点在地图上表示。

将鼠标移到小点上方,可查看气象台名称。

然后点击查看天气观测和预报。

如需切换地图:点击带黑十字的绿色按钮放大地图;点击带横线的绿色按钮缩小地图;或者点击绿色箭头查看邻近地区的地图。


METAR-TAF: